Time,TemperatureF,DewpointF,PressureIn,WindDirection,WindDirectionDegrees,WindSpeedMPH,WindSpeedGustMPH,Humidity,HourlyPrecipIn,Conditions,Clouds,dailyrainin,SolarRadiationWatts/m^2,SoftwareType,DateUTC
2013-01-30 00:01:00,8.0,2.0,-100.00,NW,324,1.0,4.0,77,-99.99,,,-99.99,0.000000,,2013-01-30 07:01:00,
2013-01-30 00:11:00,8.0,2.0,-100.00,NW,324,1.0,4.0,77,-99.99,,,-99.99,0.000000,,2013-01-30 07:11:00,
2013-01-30 00:42:00,8.0,1.0,-100.00,WNW,283,4.0,9.0,72,-99.99,,,-99.99,0.000000,,2013-01-30 07:42:00,
2013-01-30 00:52:00,8.0,1.0,-100.00,WNW,283,4.0,9.0,72,-99.99,,,-99.99,0.000000,,2013-01-30 07:52:00,
2013-01-30 01:01:00,8.0,1.0,-100.00,WNW,283,4.0,9.0,72,-99.99,,,-99.99,0.000000,,2013-01-30 08:01:00,
2013-01-30 01:11:00,8.0,1.0,-100.00,WNW,283,4.0,9.0,72,-99.99,,,-99.99,0.000000,,2013-01-30 08:11:00,
2013-01-30 01:42:00,9.0,3.0,-100.00,West,275,0.0,7.0,76,-99.99,,,-99.99,0.000000,,2013-01-30 08:42:00,
2013-01-30 01:52:00,9.0,3.0,-100.00,West,275,0.0,7.0,76,-99.99,,,-99.99,0.000000,,2013-01-30 08:52:00,
2013-01-30 02:01:00,9.0,3.0,-100.00,West,275,0.0,7.0,76,-99.99,,,-99.99,0.000000,,2013-01-30 09:01:00,
2013-01-30 02:11:00,9.0,3.0,-100.00,West,275,0.0,7.0,76,-99.99,,,-99.99,0.000000,,2013-01-30 09:11:00,
2013-01-30 03:42:00,10.0,5.0,-100.00,WSW,249,2.0,6.0,78,-99.99,,,-99.99,0.000000,,2013-01-30 10:42:00,
2013-01-30 03:52:00,10.0,5.0,-100.00,WSW,249,2.0,6.0,78,-99.99,,,-99.99,0.000000,,2013-01-30 10:52:00,
2013-01-30 04:02:00,10.0,5.0,-100.00,WSW,249,2.0,6.0,78,-99.99,,,-99.99,0.000000,,2013-01-30 11:02:00,
2013-01-30 04:11:00,10.0,5.0,-100.00,WSW,249,2.0,6.0,78,-99.99,,,-99.99,0.000000,,2013-01-30 11:11:00,
2013-01-30 04:42:00,12.0,6.0,-100.00,WNW,290,2.0,5.0,78,-99.99,,,-99.99,0.000000,,2013-01-30 11:42:00,
2013-01-30 04:52:00,12.0,6.0,-100.00,WNW,290,2.0,5.0,78,-99.99,,,-99.99,0.000000,,2013-01-30 11:52:00,
2013-01-30 05:02:00,12.0,6.0,-100.00,WNW,290,2.0,5.0,78,-99.99,,,-99.99,0.000000,,2013-01-30 12:02:00,
2013-01-30 05:12:00,12.0,6.0,-100.00,WNW,290,2.0,5.0,78,-99.99,,,-99.99,0.000000,,2013-01-30 12:12:00,
2013-01-30 05:33:00,15.0,10.0,-100.00,WNW,293,2.0,4.0,79,-99.99,,,-99.99,0.000000,,2013-01-30 12:33:00,
2013-01-30 05:43:00,15.0,10.0,-100.00,WNW,293,2.0,4.0,79,-99.99,,,-99.99,0.000000,,2013-01-30 12:43:00,
2013-01-30 06:02:00,15.0,10.0,-100.00,WNW,293,2.0,4.0,79,-99.99,,,-99.99,0.000000,,2013-01-30 13:02:00,
2013-01-30 06:12:00,15.0,10.0,-100.00,WNW,293,2.0,4.0,79,-99.99,,,-99.99,0.000000,,2013-01-30 13:12:00,
2013-01-30 06:43:00,15.0,9.0,-100.00,West,263,2.0,6.0,77,-99.99,,,-99.99,0.000000,,2013-01-30 13:43:00,
2013-01-30 06:53:00,15.0,9.0,-100.00,West,263,2.0,6.0,77,-99.99,,,-99.99,0.000000,,2013-01-30 13:53:00,
2013-01-30 07:02:00,15.0,9.0,-100.00,West,263,2.0,6.0,77,-99.99,,,-99.99,0.000000,,2013-01-30 14:02:00,
2013-01-30 07:11:00,15.0,9.0,-100.00,West,263,2.0,6.0,77,-99.99,,,-99.99,0.000000,,2013-01-30 14:11:00,
2013-01-30 07:43:00,20.0,15.0,-100.00,WSW,245,4.0,10.0,79,-99.99,,,-99.99,0.000000,,2013-01-30 14:43:00,
2013-01-30 07:53:00,20.0,15.0,-100.00,WSW,245,4.0,10.0,79,-99.99,,,-99.99,0.000000,,2013-01-30 14:53:00,
2013-01-30 08:03:00,20.0,15.0,-100.00,WSW,245,4.0,10.0,79,-99.99,,,-99.99,0.000000,,2013-01-30 15:03:00,
2013-01-30 08:11:00,20.0,15.0,-100.00,WSW,245,4.0,10.0,79,-99.99,,,-99.99,0.000000,,2013-01-30 15:11:00,
2013-01-30 08:43:00,24.0,15.0,-100.00,WSW,247,4.0,10.0,69,-99.99,,,-99.99,1.000000,,2013-01-30 15:43:00,
2013-01-30 08:53:00,24.0,15.0,-100.00,WSW,247,4.0,10.0,69,-99.99,,,-99.99,1.000000,,2013-01-30 15:53:00,
2013-01-30 09:03:00,24.0,15.0,-100.00,WSW,247,4.0,10.0,69,-99.99,,,-99.99,1.000000,,2013-01-30 16:03:00,
2013-01-30 09:12:00,24.0,15.0,-100.00,WSW,247,4.0,10.0,69,-99.99,,,-99.99,1.000000,,2013-01-30 16:12:00,
2013-01-30 09:42:00,26.0,14.0,-100.00,WSW,243,4.0,13.0,61,-99.99,,,-99.99,13.000000,,2013-01-30 16:42:00,
2013-01-30 09:52:00,26.0,14.0,-100.00,WSW,243,4.0,13.0,61,-99.99,,,-99.99,13.000000,,2013-01-30 16:52:00,
2013-01-30 10:12:00,26.0,14.0,-100.00,WSW,243,4.0,13.0,61,-99.99,,,-99.99,13.000000,,2013-01-30 17:12:00,
2013-01-30 10:33:00,27.0,15.0,-100.00,WSW,242,4.0,15.0,60,-99.99,,,-99.99,16.000000,,2013-01-30 17:33:00,
2013-01-30 12:43:00,29.0,16.0,-100.00,NW,304,6.0,13.0,57,-99.99,,,-99.99,23.000000,,2013-01-30 19:43:00,
2013-01-30 12:53:00,29.0,16.0,-100.00,NW,304,6.0,13.0,57,-99.99,,,-99.99,23.000000,,2013-01-30 19:53:00,
2013-01-30 13:11:00,29.0,16.0,-100.00,NW,304,6.0,13.0,57,-99.99,,,-99.99,23.000000,,2013-01-30 20:11:00,
2013-01-30 13:42:00,30.0,15.0,-100.00,WSW,250,5.0,14.0,54,-99.99,,,-99.99,29.000000,,2013-01-30 20:42:00,
2013-01-30 13:53:00,30.0,15.0,-100.00,WSW,250,5.0,14.0,54,-99.99,,,-99.99,29.000000,,2013-01-30 20:53:00,
2013-01-30 14:03:00,30.0,15.0,-100.00,WSW,250,5.0,14.0,54,-99.99,,,-99.99,29.000000,,2013-01-30 21:03:00,
2013-01-30 14:11:00,30.0,15.0,-100.00,WSW,250,5.0,14.0,54,-99.99,,,-99.99,29.000000,,2013-01-30 21:11:00,
2013-01-30 14:43:00,30.0,17.0,-100.00,WSW,242,4.0,12.0,59,-99.99,,,-99.99,30.000000,,2013-01-30 21:43:00,
2013-01-30 14:52:00,30.0,17.0,-100.00,WSW,242,4.0,12.0,59,-99.99,,,-99.99,30.000000,,2013-01-30 21:52:00,
2013-01-30 15:02:00,30.0,17.0,-100.00,WSW,242,4.0,12.0,59,-99.99,,,-99.99,30.000000,,2013-01-30 22:02:00,
2013-01-30 15:11:00,30.0,17.0,-100.00,WSW,242,4.0,12.0,59,-99.99,,,-99.99,30.000000,,2013-01-30 22:11:00,
2013-01-30 15:42:00,29.0,19.0,-100.00,SW,228,5.0,16.0,65,-99.99,,,-99.99,28.000000,,2013-01-30 22:42:00,
2013-01-30 15:52:00,29.0,19.0,-100.00,SW,228,5.0,16.0,65,-99.99,,,-99.99,28.000000,,2013-01-30 22:52:00,
2013-01-30 16:02:00,29.0,19.0,-100.00,SW,228,5.0,16.0,65,-99.99,,,-99.99,28.000000,,2013-01-30 23:02:00,
2013-01-30 16:11:00,29.0,19.0,-100.00,SW,228,5.0,16.0,65,-99.99,,,-99.99,28.000000,,2013-01-30 23:11:00,
2013-01-30 16:33:00,28.0,18.0,-100.00,West,262,0.0,10.0,65,-99.99,,,-99.99,24.000000,,2013-01-30 23:33:00,
2013-01-30 16:42:00,28.0,18.0,-100.00,West,262,0.0,10.0,65,-99.99,,,-99.99,24.000000,,2013-01-30 23:42:00,
2013-01-30 16:52:00,28.0,18.0,-100.00,West,262,0.0,10.0,65,-99.99,,,-99.99,24.000000,,2013-01-30 23:52:00,
2013-01-30 17:01:00,28.0,18.0,-100.00,West,262,0.0,10.0,65,-99.99,,,-99.99,24.000000,,2013-01-31 00:01:00,
2013-01-30 17:11:00,28.0,18.0,-100.00,West,262,0.0,10.0,65,-99.99,,,-99.99,24.000000,,2013-01-31 00:11:00,
2013-01-30 17:42:00,27.0,19.0,-100.00,SW,236,0.0,0.0,72,-99.99,,,-99.99,6.000000,,2013-01-31 00:42:00,
2013-01-30 17:53:00,27.0,19.0,-100.00,SW,236,0.0,0.0,72,-99.99,,,-99.99,6.000000,,2013-01-31 00:53:00,
2013-01-30 18:02:00,27.0,19.0,-100.00,SW,236,0.0,0.0,72,-99.99,,,-99.99,6.000000,,2013-01-31 01:02:00,
2013-01-30 18:11:00,27.0,19.0,-100.00,SW,236,0.0,0.0,72,-99.99,,,-99.99,6.000000,,2013-01-31 01:11:00,
2013-01-30 18:42:00,25.0,21.0,-100.00,East,85,0.0,0.0,85,-99.99,,,-99.99,0.000000,,2013-01-31 01:42:00,
2013-01-30 18:52:00,25.0,21.0,-100.00,East,85,0.0,0.0,85,-99.99,,,-99.99,0.000000,,2013-01-31 01:52:00,
2013-01-30 19:01:00,25.0,21.0,-100.00,East,85,0.0,0.0,85,-99.99,,,-99.99,0.000000,,2013-01-31 02:01:00,
2013-01-30 19:11:00,25.0,21.0,-100.00,East,85,0.0,0.0,85,-99.99,,,-99.99,0.000000,,2013-01-31 02:11:00,
2013-01-30 20:02:00,25.0,21.0,-100.00,WSW,237,0.0,0.0,84,-99.99,,,-99.99,0.000000,,2013-01-31 03:02:00,
2013-01-30 20:11:00,25.0,21.0,-100.00,WSW,237,0.0,0.0,84,-99.99,,,-99.99,0.000000,,2013-01-31 03:11:00,
2013-01-30 20:32:00,24.0,20.0,-100.00,WSW,251,0.0,6.0,86,-99.99,,,-99.99,0.000000,,2013-01-31 03:32:00,
2013-01-30 20:42:00,24.0,20.0,-100.00,WSW,251,0.0,6.0,86,-99.99,,,-99.99,0.000000,,2013-01-31 03:42:00,
2013-01-30 20:52:00,24.0,20.0,-100.00,WSW,251,0.0,6.0,86,-99.99,,,-99.99,0.000000,,2013-01-31 03:52:00,
2013-01-30 21:02:00,24.0,20.0,-100.00,WSW,251,0.0,6.0,86,-99.99,,,-99.99,0.000000,,2013-01-31 04:02:00,
2013-01-30 21:11:00,24.0,20.0,-100.00,WSW,251,0.0,6.0,86,-99.99,,,-99.99,0.000000,,2013-01-31 04:11:00,
2013-01-30 21:32:00,25.0,21.0,-100.00,West,272,2.0,6.0,83,-99.99,,,-99.99,0.000000,,2013-01-31 04:32:00,
2013-01-30 21:42:00,25.0,21.0,-100.00,West,272,2.0,6.0,83,-99.99,,,-99.99,0.000000,,2013-01-31 04:42:00,
2013-01-30 21:52:00,25.0,21.0,-100.00,West,272,2.0,6.0,83,-99.99,,,-99.99,0.000000,,2013-01-31 04:52:00,
2013-01-30 22:03:00,25.0,21.0,-100.00,West,272,2.0,6.0,83,-99.99,,,-99.99,0.000000,,2013-01-31 05:03:00,
2013-01-30 22:11:00,25.0,21.0,-100.00,West,272,2.0,6.0,83,-99.99,,,-99.99,0.000000,,2013-01-31 05:11:00,
2013-01-30 22:42:00,25.0,19.0,-100.00,West,263,0.0,4.0,79,-99.99,,,-99.99,0.000000,,2013-01-31 05:42:00,
2013-01-30 22:52:00,25.0,19.0,-100.00,West,263,0.0,4.0,79,-99.99,,,-99.99,0.000000,,2013-01-31 05:52:00,
2013-01-30 23:01:00,25.0,19.0,-100.00,West,263,0.0,4.0,79,-99.99,,,-99.99,0.000000,,2013-01-31 06:01:00,
2013-01-30 23:10:00,25.0,19.0,-100.00,West,263,0.0,4.0,79,-99.99,,,-99.99,0.000000,,2013-01-31 06:10:00,